»·PEaware :: N20ET KVNY-KSNA

N20ET :: KVNY-KSNA

FLIGHT INFORMATION

Flight Status: Arrived
Operator: Privately registered:
United States
More flights under this callsign
Pilot: Aden M. (29037)
Aircraft: CESSNA 172 SKYHAWK
(C172)
More flights by this aircraft type
Origin: KVNY Van Nuys
United States
Destination: KSNA John Wayne-Orange Co
United States
More flights between these airports :: More routes between these airports
Route:
File this flight plan on PilotEdge
Remarks:
Altitude:
(Current/Filed)
0ft
Speed:
(Current/Filed)
0kts
Departed: 22-Feb-21 09:21 AM
Arrived: 22-Feb-21 10:06 AM
Distance/Time
Traveled:
45nm/0:45
Distance/Time
To Go:
Arrived

Flight Plot

Page will automatically refresh every two minutes.


Map Options




Map Legend


Flown Route
Filed Route
Departure Airport
Arrival Airport
Navaid (VOR, NDB)
Fix

Horizontal Profiles

Position Reports

Time Latitude Longitude Heading Altitude Ground
Speed
22-Feb-21 09:10 34.218333 -118.494297 175 805ft 0kts
22-Feb-21 09:11 34.218334 -118.494297 175 805ft 0kts
22-Feb-21 09:12 34.217920 -118.494254 175 805ft 10kts
22-Feb-21 09:13 34.217435 -118.493814 98 805ft 0kts
22-Feb-21 09:14 34.217435 -118.493814 98 805ft 0kts
22-Feb-21 09:15 34.217430 -118.493761 95 805ft 4kts
22-Feb-21 09:16 34.212523 -118.491850 175 805ft 28kts
22-Feb-21 09:17 34.205175 -118.491138 175 805ft 24kts
22-Feb-21 09:18 34.202649 -118.490507 116 805ft 0kts
22-Feb-21 09:19 34.202795 -118.489878 38 805ft 14kts
22-Feb-21 09:20 34.220477 -118.491670 354 1164ft 85kts
22-Feb-21 09:21 34.228455 -118.512156 262 1869ft 85kts
22-Feb-21 09:22 34.224098 -118.539885 255 2550ft 87kts
22-Feb-21 09:23 34.215424 -118.577025 253 2527ft 130kts
22-Feb-21 09:24 34.194891 -118.609416 198 2521ft 134kts
22-Feb-21 09:25 34.162966 -118.597724 113 2511ft 134kts
22-Feb-21 09:26 34.138676 -118.566450 141 2851ft 119kts
22-Feb-21 09:27 34.113738 -118.542809 142 3441ft 109kts
22-Feb-21 09:28 34.091365 -118.521612 140 4031ft 97kts
22-Feb-21 09:29 34.086541 -118.501463 193 4293ft 105kts
22-Feb-21 09:30 34.061498 -118.489115 137 4758ft 105kts
22-Feb-21 09:31 34.078446 -118.495155 324 5052ft 102kts
22-Feb-21 09:32 34.103950 -118.512119 332 5418ft 104kts
22-Feb-21 09:33 34.131001 -118.529579 331 5529ft 120kts
22-Feb-21 09:34 34.161115 -118.548986 332 5501ft 123kts
22-Feb-21 09:35 34.191424 -118.568560 332 5501ft 123kts
22-Feb-21 09:36 34.200249 -118.598011 208 5487ft 123kts
22-Feb-21 09:37 34.169198 -118.584670 151 5486ft 123kts
22-Feb-21 09:38 34.141798 -118.561724 125 5475ft 111kts
22-Feb-21 09:39 34.128983 -118.534109 117 5447ft 82kts
22-Feb-21 09:40 34.116328 -118.515872 154 5349ft 72kts
22-Feb-21 09:41 34.096847 -118.507798 162 5297ft 86kts
22-Feb-21 09:42 34.068789 -118.495925 157 5528ft 119kts
22-Feb-21 09:43 34.036760 -118.479329 156 5528ft 132kts
22-Feb-21 09:44 34.003017 -118.461667 156 5515ft 131kts
22-Feb-21 09:45 33.969553 -118.444097 156 5515ft 131kts
22-Feb-21 09:46 33.936020 -118.426439 156 5515ft 131kts
22-Feb-21 09:47 33.907909 -118.399069 138 5514ft 131kts
22-Feb-21 09:48 33.880659 -118.370391 138 5513ft 131kts
22-Feb-21 09:49 33.853469 -118.341028 138 5513ft 131kts
22-Feb-21 09:50 33.826224 -118.311947 139 5513ft 131kts
22-Feb-21 09:51 33.798606 -118.283019 138 5513ft 131kts
22-Feb-21 09:52 33.771129 -118.254175 138 5513ft 131kts
22-Feb-21 09:53 33.745865 -118.223499 105 5221ft 131kts
22-Feb-21 09:54 33.739877 -118.179078 98 4723ft 136kts
22-Feb-21 09:55 33.732866 -118.134468 101 4224ft 136kts
22-Feb-21 09:56 33.721170 -118.092407 149 3711ft 136kts
22-Feb-21 09:57 33.691277 -118.064784 141 3301ft 133kts
22-Feb-21 09:58 33.664224 -118.035592 131 3052ft 129kts
22-Feb-21 09:59 33.641633 -118.003723 112 3018ft 123kts
22-Feb-21 10:00 33.650049 -117.965001 72 3014ft 122kts
22-Feb-21 10:01 33.660007 -117.925893 72 3014ft 122kts
22-Feb-21 10:02 33.676752 -117.898387 1 2484ft 101kts
22-Feb-21 10:03 33.695572 -117.879337 62 1774ft 91kts
22-Feb-21 10:04 33.684392 -117.863015 207 292ft 92kts
22-Feb-21 10:05 33.672249 -117.871618 255 60ft 22kts
22-Feb-21 10:06 33.671917 -117.872707 218 60ft 9kts

Navigation Log

Ident Type
Flight plan parsing failed, navigation log unavailable